CheckWX is a tool to help pilots better visualize weather data.  It is not intended as a substitute for an official pre-flight weather briefing.

20:38:07 UTC

CYYC METAR
Calgary International Airport
Calgary, Canada
Current

38 mins ago

CYYC 232000Z 21008KT 40SM FEW040 FEW160 BKN210 BKN250 01/M08 A2974 RMK CU1AC1CC5CI1 CU TR SLP119
Observed
Jan-23 @ 20:00 UTC
Wind
  • 210° at 8 KTS
Visibility
40 SM
Flight Rules
VFR
Cloud Levels
  • Few at 4,000' AGL
  • Few at 16,000' AGL
  • Broken at 21,000' AGL
  • Broken at 25,000' AGL
Temperature
C / 34°F
Dewpoint
-8°C / 18°F
Humidity
51%
Altimeter
29.74" Hg
Pressure
1007.12 hPa
Previous

2 hours ago

CYYC 231900Z 20004KT 170V240 40SM FEW032 FEW090 FEW120 BKN160 BKN220 M01/M08 A2976 RMK CU1AC1AC1AC4CC2 CU TR AC TR SLP132
Observed
Jan-23 @ 19:00 UTC
Wind
  • 200° at 4 KTS
Visibility
40 SM
Flight Rules
VFR
Cloud Levels
  • Few at 3,200' AGL
  • Few at 9,000' AGL
  • Few at 12,000' AGL
  • Broken at 16,000' AGL
Temperature
-1°C / 30°F
Dewpoint
-8°C / 18°F
Humidity
59%
Altimeter
29.76" Hg
Pressure
1007.82 hPa
Previous

3 hours ago

CYYC 231800Z 17007KT 40SM FEW030 FEW090 FEW110 BKN140 BKN240 M02/M09 A2980 RMK CU1AC1AC1AC5CI1 CU TR CI TR VIRGA NW-S / ACSL S SLP144
Observed
Jan-23 @ 18:00 UTC
Wind
  • 170° at 7 KTS
Visibility
40 SM
Flight Rules
VFR
Cloud Levels
  • Few at 3,000' AGL
  • Few at 9,000' AGL
  • Few at 11,000' AGL
  • Broken at 14,000' AGL
Temperature
-2°C / 28°F
Dewpoint
-9°C / 16°F
Humidity
59%
Altimeter
29.8" Hg
Pressure
1009.12 hPa